createdAt,value
2022-07-27T00:00:53.753Z,2.35
2022-07-27T00:03:20.786Z,3.08
2022-07-27T00:05:47.831Z,2.50
2022-07-27T00:08:14.878Z,2.38
2022-07-27T00:10:41.916Z,2.20
2022-07-27T00:13:08.931Z,2.35
2022-07-27T00:15:36.029Z,2.80
2022-07-27T00:18:04.017Z,3.03
2022-07-27T00:20:31.903Z,2.70
2022-07-27T00:22:59.109Z,3.10
2022-07-27T00:25:29.122Z,2.67
2022-07-27T00:27:57.315Z,2.80
2022-07-27T00:30:24.751Z,2.60
2022-07-27T00:32:52.196Z,3.28
2022-07-27T00:35:19.541Z,3.00
2022-07-27T00:37:46.660Z,3.38
2022-07-27T00:40:13.691Z,3.50
2022-07-27T00:42:40.728Z,3.63
2022-07-27T00:45:08.353Z,4.28
2022-07-27T00:47:35.362Z,3.58
2022-07-27T00:50:02.518Z,4.00
2022-07-27T00:52:29.548Z,3.75
2022-07-27T00:54:56.569Z,3.40
2022-07-27T00:57:23.749Z,4.35
2022-07-27T00:59:50.741Z,3.83
2022-07-27T01:02:19.394Z,3.90
2022-07-27T01:04:47.526Z,3.80
2022-07-27T01:07:15.110Z,4.18
2022-07-27T01:09:57.121Z,4.10
2022-07-27T01:12:31.641Z,3.63
2022-07-27T01:14:59.183Z,3.80
2022-07-27T01:17:27.010Z,4.00
2022-07-27T01:19:54.097Z,4.38
2022-07-27T01:22:21.178Z,4.22
2022-07-27T01:24:49.099Z,4.00
2022-07-27T01:27:16.201Z,3.97
2022-07-27T01:29:43.452Z,4.00
2022-07-27T01:32:10.706Z,4.22
2022-07-27T01:34:37.693Z,5.05
2022-07-27T01:37:05.111Z,4.45
2022-07-27T01:39:32.288Z,4.50
2022-07-27T01:41:59.383Z,5.10
2022-07-27T01:44:26.635Z,5.18
2022-07-27T01:46:53.795Z,4.65
2022-07-27T01:49:20.968Z,4.68
2022-07-27T01:51:48.194Z,5.10
2022-07-27T01:54:15.489Z,4.35
2022-07-27T01:56:42.590Z,4.35
2022-07-27T01:59:16.732Z,4.28
2022-07-27T02:01:44.978Z,4.80
2022-07-27T02:04:12.327Z,5.00
2022-07-27T02:06:39.704Z,4.00
2022-07-27T02:09:06.941Z,4.07
2022-07-27T02:11:52.329Z,5.32
2022-07-27T02:14:21.387Z,4.28
2022-07-27T02:16:50.714Z,4.68
2022-07-27T02:19:18.354Z,3.85
2022-07-27T02:21:45.584Z,4.60
2022-07-27T02:24:12.716Z,4.32
2022-07-27T02:26:39.990Z,4.05
2022-07-27T02:29:07.044Z,3.90
2022-07-27T02:31:34.129Z,4.18
2022-07-27T02:34:01.353Z,5.38
2022-07-27T02:36:31.122Z,3.63
2022-07-27T02:38:58.330Z,3.65
2022-07-27T02:41:25.343Z,3.75
2022-07-27T02:43:52.434Z,3.97
2022-07-27T02:46:19.567Z,3.90
2022-07-27T02:48:46.916Z,3.85
2022-07-27T02:51:15.353Z,4.00
2022-07-27T02:53:42.544Z,3.97
2022-07-27T02:56:09.650Z,3.92
2022-07-27T02:58:37.683Z,3.65
2022-07-27T03:01:05.673Z,4.18
2022-07-27T03:03:36.109Z,3.67
2022-07-27T03:06:06.936Z,4.28
2022-07-27T03:08:34.693Z,3.90
2022-07-27T03:11:01.668Z,4.07
2022-07-27T03:13:29.249Z,4.05
2022-07-27T03:15:56.739Z,3.28
2022-07-27T03:18:24.021Z,3.95
2022-07-27T03:20:50.992Z,3.45
2022-07-27T03:23:18.679Z,3.78
2022-07-27T03:25:45.684Z,3.40
2022-07-27T03:28:12.728Z,3.50
2022-07-27T03:30:39.867Z,3.60
2022-07-27T03:33:07.012Z,3.75
2022-07-27T03:35:34.160Z,4.13
2022-07-27T03:38:01.404Z,3.97
2022-07-27T03:40:33.032Z,4.05
2022-07-27T03:43:00.606Z,3.80
2022-07-27T03:45:27.718Z,4.00
2022-07-27T03:47:54.954Z,4.20
2022-07-27T03:50:22.681Z,4.28
2022-07-27T03:52:50.173Z,3.53
2022-07-27T03:55:17.166Z,4.80
2022-07-27T03:57:44.227Z,4.20
2022-07-27T04:00:12.854Z,4.03
2022-07-27T04:02:40.782Z,3.83
2022-07-27T04:05:08.602Z,5.03
2022-07-27T04:07:35.836Z,4.80
2022-07-27T04:10:03.059Z,3.65
2022-07-27T04:12:30.954Z,4.22
2022-07-27T04:14:58.865Z,3.85
2022-07-27T04:17:56.119Z,4.18
2022-07-27T04:20:13.211Z,4.15
2022-07-27T04:22:41.794Z,4.82
2022-07-27T04:25:09.335Z,4.25
2022-07-27T04:27:36.428Z,3.45
2022-07-27T04:30:09.215Z,3.67
2022-07-27T04:32:36.896Z,3.35
2022-07-27T04:35:04.132Z,4.05
2022-07-27T04:37:32.531Z,3.83
2022-07-27T04:39:59.783Z,3.42
2022-07-27T04:42:26.882Z,3.63
2022-07-27T04:44:53.911Z,3.70
2022-07-27T04:47:21.037Z,3.58
2022-07-27T04:49:48.097Z,3.95
2022-07-27T04:52:16.215Z,3.78
2022-07-27T04:54:43.441Z,3.25
2022-07-27T04:57:10.568Z,3.80
2022-07-27T04:59:37.735Z,3.22
2022-07-27T05:02:04.872Z,4.95
2022-07-27T05:04:31.976Z,4.13
2022-07-27T05:06:59.122Z,4.10
2022-07-27T05:09:26.201Z,3.55
2022-07-27T05:11:53.387Z,3.83
2022-07-27T05:14:21.478Z,3.83
2022-07-27T05:16:49.723Z,4.07
2022-07-27T05:19:16.990Z,4.40
2022-07-27T05:21:44.152Z,3.78
2022-07-27T05:24:11.229Z,3.90
2022-07-27T05:26:38.434Z,4.18
2022-07-27T05:29:05.452Z,4.63
2022-07-27T05:31:32.706Z,4.05
2022-07-27T05:33:59.797Z,3.85
2022-07-27T05:36:27.881Z,4.18
2022-07-27T05:38:55.459Z,4.00
2022-07-27T05:41:26.262Z,4.20
2022-07-27T05:43:54.708Z,4.53
2022-07-27T05:46:22.405Z,4.53
2022-07-27T05:48:49.888Z,3.50
2022-07-27T05:52:02.202Z,3.40
2022-07-27T05:54:46.705Z,3.25
2022-07-27T05:57:25.027Z,3.42
2022-07-27T06:00:06.142Z,3.88
2022-07-27T06:02:38.977Z,3.90
2022-07-27T06:05:15.860Z,3.03
2022-07-27T06:08:00.152Z,3.85
2022-07-27T06:10:33.365Z,3.65
2022-07-27T06:13:05.862Z,3.83
2022-07-27T06:15:42.268Z,4.38
2022-07-27T06:18:17.054Z,3.55
2022-07-27T06:20:53.397Z,3.72
2022-07-27T06:23:22.892Z,3.83
2022-07-27T06:25:50.533Z,3.17
2022-07-27T06:28:20.148Z,4.15
2022-07-27T06:30:48.026Z,3.80
2022-07-27T06:33:15.479Z,4.53
2022-07-27T06:35:46.406Z,4.05
2022-07-27T06:38:14.817Z,3.47
2022-07-27T06:40:46.236Z,3.85
2022-07-27T06:43:19.341Z,3.97
2022-07-27T06:45:48.583Z,3.85
2022-07-27T06:48:17.355Z,3.83
2022-07-27T06:50:47.158Z,3.55
2022-07-27T06:53:18.995Z,3.33
2022-07-27T06:55:52.306Z,3.50
2022-07-27T06:58:20.314Z,3.58
2022-07-27T07:00:54.915Z,3.95
2022-07-27T07:03:22.079Z,4.03
2022-07-27T07:05:49.203Z,3.70
2022-07-27T07:08:16.440Z,3.50
2022-07-27T07:10:45.155Z,3.60
2022-07-27T07:13:12.264Z,3.60
2022-07-27T07:15:40.698Z,4.40
2022-07-27T07:18:07.979Z,4.15
2022-07-27T07:20:35.744Z,4.85
2022-07-27T07:23:03.987Z,4.38
2022-07-27T07:25:31.419Z,4.45
2022-07-27T07:27:58.711Z,4.05
2022-07-27T07:30:28.444Z,4.68
2022-07-27T07:33:03.125Z,4.70
2022-07-27T07:36:12.376Z,4.32
2022-07-27T07:39:57.518Z,4.65
2022-07-27T07:43:03.433Z,3.20
2022-07-27T07:45:35.578Z,3.97
2022-07-27T07:49:04.755Z,4.40
2022-07-27T07:52:08.664Z,3.58
2022-07-27T07:54:38.201Z,4.47
2022-07-27T07:57:42.676Z,4.10
2022-07-27T08:00:20.193Z,4.10
2022-07-27T08:02:48.679Z,4.45
2022-07-27T08:05:16.076Z,4.80
2022-07-27T08:07:43.657Z,4.50
2022-07-27T08:10:12.042Z,4.55
2022-07-27T08:12:40.681Z,5.15
2022-07-27T08:15:08.416Z,3.92
2022-07-27T08:17:35.413Z,4.18
2022-07-27T08:20:02.642Z,3.78
2022-07-27T08:22:29.564Z,4.20
2022-07-27T08:24:56.678Z,3.88
2022-07-27T08:27:23.731Z,4.63
2022-07-27T08:29:52.005Z,4.32
2022-07-27T08:32:19.408Z,5.20
2022-07-27T08:34:46.761Z,4.90
2022-07-27T08:37:19.127Z,5.82
2022-07-27T08:40:39.063Z,5.20
2022-07-27T08:44:05.560Z,5.35
2022-07-27T08:46:54.261Z,5.60
2022-07-27T08:49:55.875Z,5.20
2022-07-27T08:53:52.225Z,5.70
2022-07-27T08:56:52.955Z,5.63
2022-07-27T08:59:43.758Z,5.43
2022-07-27T09:20:24.942Z,4.85
2022-07-27T09:30:14.839Z,5.57
2022-07-27T09:37:16.839Z,5.85
2022-07-27T09:43:06.617Z,5.40
2022-07-27T09:46:19.459Z,4.57
2022-07-27T09:50:10.392Z,5.40
2022-07-27T09:53:19.682Z,4.93
2022-07-27T10:00:44.503Z,4.35
2022-07-27T10:16:58.212Z,4.88
2022-07-27T10:19:35.056Z,4.68
2022-07-27T10:22:09.361Z,4.55
2022-07-27T13:07:50.778Z,4.45
2022-07-27T13:10:41.079Z,3.35
2022-07-27T13:13:33.799Z,4.47
2022-07-27T13:45:05.572Z,5.18
2022-07-27T13:47:35.009Z,5.10
2022-07-27T14:07:28.251Z,4.25
2022-07-27T14:45:20.532Z,3.92
2022-07-27T14:47:48.555Z,4.00
2022-07-27T14:50:15.935Z,4.50
2022-07-27T14:52:46.486Z,4.47
2022-07-27T14:55:15.318Z,4.60
2022-07-27T14:58:14.526Z,3.92
2022-07-27T15:00:47.184Z,3.80
2022-07-27T15:24:11.590Z,4.78
2022-07-27T15:34:05.859Z,3.85
2022-07-27T15:44:00.547Z,3.78
2022-07-27T15:46:29.305Z,4.60
2022-07-27T15:48:59.684Z,4.25
2022-07-27T15:51:26.981Z,4.40
2022-07-27T15:54:11.157Z,4.97
2022-07-27T15:56:48.948Z,3.60
2022-07-27T15:59:25.656Z,5.03
2022-07-27T16:01:56.079Z,4.18
2022-07-27T16:04:27.523Z,4.47
2022-07-27T16:07:07.161Z,4.20
2022-07-27T16:09:49.060Z,4.28
2022-07-27T16:12:33.764Z,4.32
2022-07-27T16:15:24.527Z,4.60
2022-07-27T16:17:56.743Z,4.03
2022-07-27T16:30:34.026Z,5.20
2022-07-27T16:46:58.622Z,4.95
2022-07-27T16:52:47.852Z,5.05
2022-07-27T16:55:19.643Z,4.75
2022-07-27T16:57:49.772Z,4.90
2022-07-27T17:00:18.368Z,4.78
2022-07-27T17:02:47.668Z,5.30
2022-07-27T17:05:19.606Z,4.80
2022-07-27T17:07:52.573Z,4.10
2022-07-27T17:10:27.219Z,5.07
2022-07-27T17:13:13.479Z,4.88
2022-07-27T17:15:41.116Z,4.43
2022-07-27T17:18:11.470Z,4.85
2022-07-27T17:20:46.139Z,4.28
2022-07-27T17:23:41.369Z,5.43
2022-07-27T17:26:31.726Z,4.13
2022-07-27T17:29:02.552Z,4.88
2022-07-27T17:31:37.158Z,4.53
2022-07-27T17:34:08.584Z,4.75
2022-07-27T17:36:42.325Z,4.78
2022-07-27T17:40:35.290Z,4.88
2022-07-27T17:42:25.840Z,4.45
2022-07-27T17:44:55.591Z,4.55
2022-07-27T17:47:23.032Z,4.28
2022-07-27T17:49:53.384Z,4.65
2022-07-27T17:53:06.844Z,4.60
2022-07-27T17:55:41.483Z,4.82
2022-07-27T17:58:13.578Z,4.10
2022-07-27T18:00:46.313Z,4.07
2022-07-27T18:03:28.917Z,4.15
2022-07-27T18:06:35.151Z,5.37
2022-07-27T18:16:42.060Z,4.43
2022-07-27T18:19:09.510Z,4.18
2022-07-27T18:21:36.749Z,5.38
2022-07-27T18:24:04.427Z,4.25
2022-07-27T18:26:31.685Z,4.20
2022-07-27T18:28:58.695Z,3.83
2022-07-27T18:31:25.972Z,5.38
2022-07-27T18:33:54.601Z,4.25
2022-07-27T18:36:21.848Z,3.80
2022-07-27T18:38:57.964Z,4.13
2022-07-27T18:41:40.256Z,3.38
2022-07-27T18:57:24.933Z,4.38
2022-07-27T18:59:53.730Z,4.07
2022-07-27T19:02:21.003Z,4.03
2022-07-27T19:04:58.133Z,4.03
2022-07-27T19:07:37.492Z,3.50
2022-07-27T19:10:17.320Z,3.47
2022-07-27T19:12:47.589Z,3.58
2022-07-27T19:15:25.245Z,3.92
2022-07-27T19:20:46.180Z,4.60
2022-07-27T19:23:15.504Z,4.32
2022-07-27T19:25:43.723Z,4.18
2022-07-27T19:28:11.356Z,4.15
2022-07-27T19:30:42.044Z,4.50
2022-07-27T19:33:12.900Z,4.78
2022-07-27T19:35:40.156Z,4.50
2022-07-27T19:38:17.141Z,4.97
2022-07-27T19:40:50.155Z,4.50
2022-07-27T19:43:25.412Z,4.53
2022-07-27T19:45:55.345Z,4.93
2022-07-27T19:48:35.130Z,4.97
2022-07-27T19:51:12.961Z,4.90
2022-07-27T19:54:22.230Z,4.60
2022-07-27T20:00:31.796Z,4.65
2022-07-27T20:06:56.712Z,4.40
2022-07-27T20:09:39.404Z,5.22
2022-07-27T20:12:10.077Z,5.00
2022-07-27T20:14:38.027Z,4.15
2022-07-27T20:17:06.312Z,5.35
2022-07-27T20:19:33.773Z,5.13
2022-07-27T20:22:01.286Z,5.00
2022-07-27T20:24:28.741Z,4.65
2022-07-27T20:26:56.869Z,4.75
2022-07-27T20:29:24.342Z,4.63
2022-07-27T20:31:55.315Z,4.65
2022-07-27T20:34:23.645Z,4.53
2022-07-27T20:36:54.181Z,4.90
2022-07-27T20:39:21.651Z,4.80
2022-07-27T20:41:49.058Z,5.00
2022-07-27T20:44:16.142Z,5.00
2022-07-27T20:46:43.647Z,4.57
2022-07-27T20:49:11.150Z,4.35
2022-07-27T20:51:43.903Z,5.75
2022-07-27T20:54:11.130Z,5.37
2022-07-27T20:56:38.220Z,5.00
2022-07-27T20:59:07.571Z,4.80
2022-07-27T21:01:43.701Z,5.00
2022-07-27T21:04:10.926Z,5.95
2022-07-27T21:06:38.134Z,4.90
2022-07-27T21:09:05.264Z,4.63
2022-07-27T21:11:32.683Z,5.40
2022-07-27T21:13:59.751Z,5.05
2022-07-27T21:16:27.095Z,5.30
2022-07-27T21:18:54.251Z,5.13
2022-07-27T21:21:25.574Z,5.53
2022-07-27T21:26:43.622Z,5.05
2022-07-27T21:29:11.727Z,5.05
2022-07-27T21:31:39.392Z,6.00
2022-07-27T21:34:07.337Z,4.75
2022-07-27T21:36:34.852Z,4.78
2022-07-27T21:39:02.054Z,4.95
2022-07-27T21:41:29.172Z,4.90
2022-07-27T21:43:56.360Z,4.65
2022-07-27T21:46:24.068Z,5.07
2022-07-27T21:57:10.101Z,5.15
2022-07-27T21:59:37.300Z,5.43
2022-07-27T22:02:04.373Z,4.65
2022-07-27T22:04:31.588Z,4.80
2022-07-27T22:06:58.689Z,5.05
2022-07-27T22:09:25.791Z,5.00
2022-07-27T22:11:52.893Z,4.72
2022-07-27T22:14:23.515Z,4.63
2022-07-27T22:16:50.704Z,4.53
2022-07-27T22:19:18.100Z,5.18
2022-07-27T22:21:45.213Z,4.43
2022-07-27T22:24:12.550Z,5.70
2022-07-27T22:26:40.232Z,5.07
2022-07-27T22:29:07.413Z,6.10
2022-07-27T22:31:34.491Z,5.30
2022-07-27T22:34:01.710Z,5.60
2022-07-27T22:36:28.720Z,5.22
2022-07-27T22:38:56.093Z,4.70
2022-07-27T22:41:23.364Z,5.18
2022-07-27T22:43:50.558Z,4.43
2022-07-27T22:46:19.900Z,4.70
2022-07-27T22:48:50.913Z,4.82
2022-07-27T22:51:18.023Z,5.15
2022-07-27T22:53:45.150Z,4.70
2022-07-27T22:56:12.328Z,5.20
2022-07-27T22:58:39.453Z,4.93
2022-07-27T23:01:06.557Z,5.57
2022-07-27T23:03:53.725Z,4.72
2022-07-27T23:06:21.090Z,5.15
2022-07-27T23:08:49.923Z,4.80
2022-07-27T23:11:19.353Z,4.93
2022-07-27T23:13:47.534Z,4.95
2022-07-27T23:16:14.963Z,4.85
2022-07-27T23:18:42.219Z,4.72
2022-07-27T23:21:09.456Z,5.10
2022-07-27T23:23:41.032Z,4.75
2022-07-27T23:26:25.865Z,5.13
2022-07-27T23:28:54.080Z,4.97
2022-07-27T23:31:22.007Z,5.43
2022-07-27T23:33:49.396Z,5.05
2022-07-27T23:36:16.806Z,5.53
2022-07-27T23:38:43.972Z,4.70
2022-07-27T23:41:10.998Z,4.88
2022-07-27T23:43:38.149Z,4.75
2022-07-27T23:46:07.257Z,4.57
2022-07-27T23:48:34.558Z,5.22
2022-07-27T23:51:01.688Z,5.53
2022-07-27T23:53:28.831Z,5.43
2022-07-27T23:55:55.955Z,6.07
2022-07-27T23:58:23.077Z,5.55
